METAR Data
IDs: Format: Raw Decoded Include TAF

Data at: 0434 UTC 18 Oct 2018

METAR for:KVTA (Newark/Heath Arpt, OH, US)
Text:KVTA 180354Z AUTO 32004KT 10SM CLR 04/00 A3041 RMK AO2 SLP299 T00440000
Temperature: 4.4°C ( 40°F)
Dewpoint: 0.0°C ( 32°F) [RH = 73%]
Pressure (altimeter):30.41 inches Hg (1029.9 mb) [Sea level pressure: 1029.9 mb]
Winds:from the NW (320 degrees) at 5 MPH (4 knots; 2.1 m/s)
Visibility:10 or more sm (16+ km)
Ceiling:at least 12,000 feet AGL
Clouds:sky clear below 12,000 feet AGL
QC Flag:automated observation with no human augmentation